Station info - map view · info · telemetry · weather · raw · status · beacons · messages · bulletins · browse · moving · my account
Callsign, ship name or locator: Clear       
It is possible to search using wildcards (*?) after a prefix. Example: OH*
APRS station WA6L-9 - show graphs
Map loading...
Mic-E message: Off duty
Location: 38°33.23' N 121°30.39' W - locator CM98FN92FW - show map - static map
2.0 miles South bearing 199° from Sacramento, Sacramento County, California, United States [?]
4.7 miles Northwest bearing 327° from Parkway, Sacramento County, California, United States
73.1 miles Northeast bearing 42° from San Francisco, San Francisco County, California, United States
Last position: 2019-03-10 22:48:39 EDT (15d 9h7m ago)
2019-03-10 19:48:39 PDT local time at Sacramento, United States [?]
Altitude: -36 ft
Course: 173°
Device: Kenwood: TM-D710 (rig)
Last path: WA6L-9>SXSSRS via WIDE1-1,WIDE2-1,qAR,GAPGTE (good)
Positions stored: 403
Other SSIDs: WA6L-7 WA6L-B WA6L-R
Stations near current position of WA6L-9 - show more
callsign distance last heard - EDT      callsign distance last heard - EDT
WA6L B111.5 yards 205°2019-03-26 07:45:59 WA6L-B111.5 yards 205°2019-03-26 07:46:09
WA6L-R111.5 yards 205°2019-03-26 07:46:18 KK6UAZ-70.8 miles 102°2019-02-28 01:03:28
W0FZJ-91.7 miles 359°2019-03-16 23:12:18 KI6PPU-71.8 miles 157°2019-03-19 19:33:53
GAPGTE1.8 miles 157°2019-03-26 07:40:58 KI6PPU-11.8 miles 156°2019-03-21 00:30:29
DW95581.9 miles 47°2019-03-26 07:46:26 N6QGS1.9 miles 47°2019-03-22 19:23:29
K6ABJ2.0 miles 1°2019-03-09 15:52:32 KM6SIT-N2.0 miles 19°2019-03-04 09:07:42
KU6RT-K2.0 miles 19°2019-03-25 11:54:17 WQ6F3.6 miles 350°2019-03-26 07:20:06
KI6SGE-93.7 miles 203°2019-03-03 20:17:11 KK6IOS-94.2 miles 45°2019-03-14 13:08:03
KM6SUR-74.3 miles 200°2019-03-02 15:18:09 WA6MNV B4.5 miles 193°2019-03-26 07:51:08
WA6MNV-B4.5 miles 193°2019-03-26 07:51:18 KM6AUT4.6 miles 351°2019-03-05 19:04:25
Stations which heard WA6L-9 directly on radio –
callsign pkts first heard - EDT last heard longest (tx => rx) longest at - EDT
RANCHO 3 2019-03-10 20:02:17 2019-03-10 20:09:54 CM98PR > CM98QR 5.6 miles 97° 2019-03-10 20:09:54
K6FGA-1 24 2019-03-10 14:10:58 2019-03-10 22:44:44 CM98GN > CM99MF 54.8 miles 30° 2019-03-10 22:44:44
ECHO 7 2019-03-10 18:04:52 2019-03-10 19:25:16 DM09AF > CM98XT 31.7 miles 192° 2019-03-10 18:04:52
SNOW 13 2019-03-10 15:35:23 2019-03-10 19:09:42 CM99UI > DM09BD 26.9 miles 119° 2019-03-10 15:35:23
K6CDF-8 18 2019-03-10 14:01:45 2019-03-10 22:28:56 CM98RS > CM89SC 106.3 miles 283° 2019-03-10 19:59:39
WA6EWV-3 23 2019-03-10 16:03:40 2019-03-10 19:08:42 CM99XF > DM08AW 22.5 miles 161° 2019-03-10 17:47:52
KJ6NKR-2 12 2019-03-10 18:21:01 2019-03-10 19:14:07 DM09AF > DM08AV 24.5 miles 185° 2019-03-10 18:21:01
DANAHR 2 2019-03-10 20:06:08 2019-03-10 20:07:33 CM98PR > CM98PR 1.6 miles 80° 2019-03-10 20:07:33
VACA 16 2019-03-10 14:17:52 2019-03-10 22:46:23 CM98PR > CM88WJ 78.6 miles 254° 2019-03-10 20:09:24
ALDER 22 2019-03-10 17:37:48 2019-03-10 22:37:17 CM98IN > CM98TR 53.3 miles 77° 2019-03-10 22:37:17
W6SRR-3 1 2019-03-10 20:08:31 2019-03-10 20:08:31 CM98PR > CM97AO 101.1 miles 221° 2019-03-10 20:08:31
K3OES 9 2019-03-10 14:01:06 2019-03-10 22:44:58 CM98KP > CM89PK 100.7 miles 303° 2019-03-10 20:32:51
SPDRLK 1 2019-03-10 18:23:54 2019-03-10 18:23:54 DM09AF > CM99UA 23.4 miles 231° 2019-03-10 18:23:54
KK6KLQ-10 1 2019-03-10 22:27:55 2019-03-10 22:27:55 CM98KP > CM98KP 1.7 miles 281° 2019-03-10 22:27:55
GAPGTE 5 2019-03-10 14:00:35 2019-03-10 22:48:39 CM98GP > CM98GM 7.9 miles 190° 2019-03-10 14:15:33
GTOWN 1 2019-03-10 20:17:39 2019-03-10 20:17:39 CM98NR > CM98NW 14.8 miles 356° 2019-03-10 20:17:39

Only position packets which were originated by the station are shown here. The range statistics show some extra long hops, because some digipeaters do not correctly add themselves to the digipeater path. Please check the raw packets.
About this site
This page shows real-time information collected from the Automatic Position Reporting System Internet network (APRS-IS). APRS is used by amateur (ham) radio operators to transmit real-time position information, weather data, telemetry and messages over the radio. A vehicle equipped with a GPS receiver, a VHF transmitter or HF transceiver and a small computer device called a tracker transmits it's location, speed and course in a small data packet, which is then received by a nearby iGate receiving site which forwards the packet on the Internet. Systems connected to the Internet can send information on the APRS-IS without a radio transmitter, or collect and display information transmitted anywhere in the world.
FAQ · Blog · Discussion group · Linking to aprs.fi · AIS sites · Service status · Database statistics · Advertising on aprs.fi · Technical details · API · Change log · Planned changes · Credits and thanks · Terms Of Service · iPhone/iPad APRS